Time;durP1;ratioP1;P1;durP2;ratioP2;P2;SDS_P1;SDS_P2;PMS_P1;PMS_P2;Temp;Humidity;BMP_temperature;BMP_pressure;BME280_temperature;BME280_humidity;BME280_pressure;Samples;Min_cycle;Max_cycle;Signal;HPM_P1;HPM_P2
2021/03/31 00:01:58;;;;;;;11.40;9.35;;;;;;;5.40;64.18;100001.13;5009963;28;20037;-60
2021/03/31 00:04:24;;;;;;;13.45;9.95;;;;;;;5.42;64.25;99999.25;5026257;28;20112;-61
2021/03/31 00:06:50;;;;;;;11.88;9.48;;;;;;;5.38;64.47;100005.69;5005690;28;20038;-59
2021/03/31 00:09:15;;;;;;;12.30;9.43;;;;;;;5.41;64.25;99990.41;5008311;28;20153;-60
2021/03/31 00:11:41;;;;;;;14.23;10.57;;;;;;;5.46;64.46;99993.69;5007837;28;20042;-57
2021/03/31 00:14:07;;;;;;;13.05;9.85;;;;;;;5.52;64.22;100004.91;4988757;28;20074;-61
2021/03/31 00:16:33;;;;;;;13.82;10.85;;;;;;;5.53;63.96;100011.91;4988791;28;20213;-61
2021/03/31 00:18:58;;;;;;;13.85;10.15;;;;;;;5.53;64.18;99988.03;4988526;28;20038;-59
2021/03/31 00:21:24;;;;;;;13.18;10.63;;;;;;;5.49;64.54;99983.84;4989095;28;20482;-60
2021/03/31 00:23:50;;;;;;;14.80;11.32;;;;;;;5.44;64.47;99977.00;5004906;28;20054;-59
2021/03/31 00:26:21;;;;;;;13.77;10.10;;;;;;;5.62;64.40;99987.47;5010429;28;20505;-60
2021/03/31 00:28:47;;;;;;;12.82;10.02;;;;;;;5.27;64.07;99930.13;5010113;28;20037;-59
2021/03/31 00:31:12;;;;;;;13.98;11.75;;;;;;;5.55;64.67;99972.84;5010092;28;20040;-59
2021/03/31 00:33:38;;;;;;;13.75;10.80;;;;;;;5.50;64.75;99983.72;5009737;28;20033;-60
2021/03/31 00:36:05;;;;;;;13.13;10.65;;;;;;;5.42;65.03;99970.88;5010420;28;20124;-59
2021/03/31 00:38:30;;;;;;;14.63;11.30;;;;;;;5.39;65.23;99979.03;5008877;28;20041;-60
2021/03/31 00:40:56;;;;;;;12.93;10.35;;;;;;;5.34;65.67;99964.31;5014068;28;20033;-61
2021/03/31 00:43:23;;;;;;;14.82;11.25;;;;;;;5.36;65.83;99979.19;5024052;28;20053;-61
2021/03/31 00:45:49;;;;;;;14.82;10.95;;;;;;;5.27;66.09;99959.34;5009674;28;20118;-61
2021/03/31 00:48:16;;;;;;;13.52;10.77;;;;;;;5.27;66.58;99975.25;5009032;28;20121;-61
2021/03/31 00:50:46;;;;;;;14.73;10.82;;;;;;;5.33;67.14;99960.78;5009548;28;20397;-56
2021/03/31 00:53:18;;;;;;;14.88;11.23;;;;;;;5.30;66.59;99967.16;5008623;28;20049;-56
2021/03/31 00:55:45;;;;;;;12.77;9.98;;;;;;;5.41;66.63;99960.38;5010358;28;20041;-60
2021/03/31 00:58:11;;;;;;;13.75;10.50;;;;;;;5.44;66.24;99962.84;5009714;28;20038;-61
2021/03/31 01:00:36;;;;;;;14.32;10.48;;;;;;;5.40;66.71;99964.81;5009780;28;20040;-60
2021/03/31 01:03:02;;;;;;;14.80;10.65;;;;;;;5.43;66.93;99951.38;5009835;28;20033;-60
2021/03/31 01:05:30;;;;;;;12.82;10.35;;;;;;;5.35;66.91;99955.41;5023207;28;20497;-61
2021/03/31 01:07:56;;;;;;;14.60;10.82;;;;;;;5.21;66.85;99919.88;5005675;28;20056;-60
2021/03/31 01:10:34;;;;;;;13.35;10.55;;;;;;;5.48;66.55;99959.06;5006263;28;20056;-61
2021/03/31 01:13:38;;;;;;;14.65;10.63;;;;;;;5.55;67.58;99949.81;5007494;28;20037;-52
2021/03/31 01:16:15;;;;;;;13.85;10.55;;;;;;;5.42;67.22;99922.25;5004669;28;20081;-61
2021/03/31 01:18:47;;;;;;;13.30;10.07;;;;;;;5.55;67.39;99957.78;5009884;28;20068;-61
2021/03/31 01:21:51;;;;;;;14.50;10.38;;;;;;;5.59;67.88;99946.03;5011076;28;20042;-59
2021/03/31 01:24:25;;;;;;;13.15;10.40;;;;;;;5.58;66.54;99941.66;5026325;28;20081;-60
2021/03/31 01:27:12;;;;;;;13.82;10.60;;;;;;;5.52;67.23;99920.75;5012855;28;20547;-60
2021/03/31 01:30:05;;;;;;;12.98;9.73;;;;;;;5.64;67.30;99932.47;5012724;28;20134;-60
2021/03/31 01:32:34;;;;;;;12.93;9.95;;;;;;;5.63;67.02;99924.59;5013279;28;20049;-56
2021/03/31 01:35:07;;;;;;;13.65;10.10;;;;;;;5.66;67.12;99925.25;5013599;28;20026;-59
2021/03/31 01:37:37;;;;;;;12.40;10.00;;;;;;;5.65;66.62;99920.88;5013115;28;20069;-60
2021/03/31 01:40:06;;;;;;;12.98;10.20;;;;;;;5.62;67.30;99922.88;5012846;28;20030;-61
2021/03/31 01:42:35;;;;;;;11.30;9.57;;;;;;;5.61;66.75;99916.72;5013070;28;20442;-53
2021/03/31 01:45:06;;;;;;;10.75;9.07;;;;;;;5.59;67.76;99911.50;5013404;28;20034;-60
2021/03/31 01:47:37;;;;;;;12.93;10.27;;;;;;;5.49;67.68;99880.25;5012605;28;20041;-55
2021/03/31 01:50:06;;;;;;;13.00;9.30;;;;;;;5.48;67.46;99884.69;5012364;28;20037;-60
2021/03/31 01:52:33;;;;;;;10.65;9.13;;;;;;;5.58;67.31;99912.44;5013108;28;20045;-59
2021/03/31 01:54:59;;;;;;;11.23;9.30;;;;;;;5.63;67.10;99904.19;5013005;28;20116;-56
2021/03/31 01:57:26;;;;;;;10.27;9.02;;;;;;;5.61;66.98;99895.47;5012470;28;20513;-61
2021/03/31 01:59:54;;;;;;;13.00;9.65;;;;;;;5.51;67.75;99895.16;5012713;28;20572;-61
2021/03/31 02:02:23;;;;;;;12.25;9.27;;;;;;;5.53;67.81;99882.63;5012709;28;20069;-60
2021/03/31 02:04:49;;;;;;;11.75;9.35;;;;;;;5.58;67.61;99880.59;5012303;28;20076;-61
2021/03/31 02:07:17;;;;;;;11.60;9.57;;;;;;;5.20;67.56;99822.59;5009415;28;20460;-58
2021/03/31 02:09:46;;;;;;;13.25;9.10;;;;;;;5.48;67.59;99867.94;5010279;28;20092;-60
2021/03/31 02:12:14;;;;;;;12.48;9.38;;;;;;;5.63;67.81;99884.75;5009299;28;20490;-58
2021/03/31 02:14:43;;;;;;;11.95;9.05;;;;;;;5.68;67.95;99890.66;5010123;28;20036;-58
2021/03/31 02:17:09;;;;;;;11.15;9.38;;;;;;;5.50;67.23;99872.19;5009736;28;20049;-60
2021/03/31 02:19:40;;;;;;;12.00;8.95;;;;;;;5.59;68.25;99879.63;5010036;28;20033;-61
2021/03/31 02:22:10;;;;;;;11.35;8.77;;;;;;;5.60;67.94;99884.00;5010071;28;20807;-58
2021/03/31 02:24:36;;;;;;;12.00;9.32;;;;;;;5.15;67.21;99801.63;5007511;28;20046;-58
2021/03/31 02:27:05;;;;;;;12.15;9.35;;;;;;;5.38;68.13;99835.75;5010002;28;20033;-55
2021/03/31 02:29:30;;;;;;;10.30;9.15;;;;;;;5.34;67.44;99826.25;5008878;28;20033;-59
2021/03/31 02:31:57;;;;;;;10.13;8.85;;;;;;;5.66;67.25;99876.59;5025405;28;20046;-59
2021/03/31 02:34:23;;;;;;;12.77;9.70;;;;;;;5.64;67.29;99870.53;5008577;28;20505;-61
2021/03/31 02:36:49;;;;;;;11.85;9.43;;;;;;;5.80;67.77;99889.94;5009966;28;20032;-61
2021/03/31 02:39:16;;;;;;;10.40;9.02;;;;;;;5.79;67.48;99897.97;5007532;28;20041;-59
2021/03/31 02:41:50;;;;;;;12.63;8.60;;;;;;;5.84;68.25;99893.25;5009461;28;20103;-59
2021/03/31 02:44:17;;;;;;;10.68;8.85;;;;;;;5.72;67.54;99869.13;5009336;28;20099;-60
2021/03/31 02:46:45;;;;;;;10.20;8.68;;;;;;;5.79;67.95;99872.28;5009269;28;20034;-62
2021/03/31 02:49:11;;;;;;;10.10;8.32;;;;;;;5.83;67.50;99879.13;5007604;28;20644;-60
2021/03/31 02:51:38;;;;;;;10.68;8.52;;;;;;;5.84;67.85;99886.13;5007651;28;20041;-58
2021/03/31 02:54:09;;;;;;;9.43;7.95;;;;;;;5.84;68.04;99882.63;5009522;28;20029;-59
2021/03/31 02:56:38;;;;;;;11.73;8.75;;;;;;;5.46;67.49;99812.25;5007917;28;20033;-60
2021/03/31 02:59:04;;;;;;;9.70;8.48;;;;;;;5.85;67.98;99876.34;5009319;28;20515;-59
2021/03/31 03:01:30;;;;;;;11.20;8.05;;;;;;;5.85;68.49;99869.25;5010356;28;20481;-62
2021/03/31 03:03:56;;;;;;;9.98;8.13;;;;;;;5.91;68.17;99877.78;5011605;28;20034;-60
2021/03/31 03:06:23;;;;;;;9.68;8.30;;;;;;;5.82;68.17;99865.91;5011311;28;20041;-61
2021/03/31 03:08:50;;;;;;;9.77;8.18;;;;;;;5.90;67.64;99863.63;5011274;28;20045;-61
2021/03/31 03:11:16;;;;;;;10.63;8.45;;;;;;;5.91;68.22;99865.38;5007802;28;20093;-57
2021/03/31 03:13:43;;;;;;;11.82;8.88;;;;;;;5.78;67.86;99848.44;5008915;28;20026;-61
2021/03/31 03:16:10;;;;;;;9.90;8.57;;;;;;;5.88;68.18;99881.47;5009225;28;20038;-59
2021/03/31 03:18:35;;;;;;;10.48;8.43;;;;;;;5.92;68.12;99876.84;5011777;28;20509;-62
2021/03/31 03:21:01;;;;;;;9.55;7.80;;;;;;;5.26;67.91;99774.44;5011400;28;20034;-62
2021/03/31 03:23:27;;;;;;;11.50;8.82;;;;;;;5.87;68.32;99880.63;5010571;28;20088;-60
2021/03/31 03:25:53;;;;;;;10.10;8.32;;;;;;;5.88;68.44;99877.03;5007719;28;20046;-58
2021/03/31 03:28:21;;;;;;;11.77;9.77;;;;;;;5.91;68.72;99873.34;5008537;28;20210;-61
2021/03/31 03:30:48;;;;;;;12.25;9.43;;;;;;;5.64;67.96;99828.88;5007264;28;20037;-61
2021/03/31 03:33:15;;;;;;;9.43;8.43;;;;;;;5.52;68.03;99792.44;5008441;28;20041;-59
2021/03/31 03:35:43;;;;;;;12.68;10.13;;;;;;;5.94;68.90;99864.31;5008621;28;20041;-59
2021/03/31 03:38:08;;;;;;;12.88;9.80;;;;;;;5.87;68.15;99855.84;5024038;28;20030;-57
2021/03/31 03:40:34;;;;;;;12.50;9.60;;;;;;;5.92;68.27;99855.59;5008823;28;20103;-59
2021/03/31 03:43:00;;;;;;;10.65;9.40;;;;;;;5.99;68.41;99862.22;5006060;28;20022;-58
2021/03/31 03:45:26;;;;;;;9.82;8.82;;;;;;;5.63;68.38;99802.41;5008830;28;20080;-60
2021/03/31 03:47:55;;;;;;;11.35;9.32;;;;;;;5.69;68.71;99796.72;5008882;28;20180;-62
2021/03/31 03:50:21;;;;;;;12.27;9.00;;;;;;;5.62;68.09;99782.97;5008372;28;20087;-59
2021/03/31 03:52:51;;;;;;;11.48;9.70;;;;;;;6.03;68.81;99842.53;5008481;28;20045;-61
2021/03/31 03:55:22;;;;;;;12.55;9.05;;;;;;;6.12;68.67;99860.56;5008683;28;20033;-60
2021/03/31 03:57:47;;;;;;;9.88;8.57;;;;;;;6.20;67.87;99854.78;5008717;28;20029;-60
2021/03/31 04:00:18;;;;;;;10.38;8.75;;;;;;;6.15;68.60;99871.00;5024646;28;20064;-64
2021/03/31 04:02:49;;;;;;;9.55;8.55;;;;;;;5.99;68.11;99836.50;5010064;28;20524;-62
2021/03/31 04:05:15;;;;;;;11.80;9.57;;;;;;;5.99;68.60;99848.94;5010279;28;20502;-61
2021/03/31 04:07:40;;;;;;;10.68;9.30;;;;;;;6.12;68.36;99862.34;5010594;28;20041;-59
2021/03/31 04:10:08;;;;;;;10.65;9.43;;;;;;;6.18;68.61;99869.97;5010694;28;20038;-61
2021/03/31 04:12:35;;;;;;;11.73;9.38;;;;;;;5.76;67.97;99787.41;5008865;28;20034;-62
2021/03/31 04:15:01;;;;;;;12.55;9.10;;;;;;;5.84;67.60;99795.81;5010329;28;20034;-61
2021/03/31 04:17:28;;;;;;;10.60;9.30;;;;;;;6.18;68.22;99843.41;5010732;28;20030;-62
2021/03/31 04:19:55;;;;;;;10.60;9.27;;;;;;;6.28;67.98;99854.31;5010150;28;20048;-62
2021/03/31 04:22:20;;;;;;;10.48;9.27;;;;;;;6.28;68.06;99857.81;5010036;28;20446;-62
2021/03/31 04:24:46;;;;;;;10.82;9.38;;;;;;;6.31;67.80;99856.78;5010382;28;20121;-60
2021/03/31 04:27:14;;;;;;;10.73;8.95;;;;;;;6.29;68.32;99848.03;5010400;28;20042;-62
2021/03/31 04:29:43;;;;;;;13.15;10.82;;;;;;;6.37;68.02;99852.84;5008931;28;20037;-55
2021/03/31 04:32:12;;;;;;;11.45;9.73;;;;;;;6.41;67.79;99849.91;5009517;28;20497;-62
2021/03/31 04:34:39;;;;;;;12.48;10.27;;;;;;;6.41;67.99;99852.56;5010045;28;20049;-62
2021/03/31 04:37:05;;;;;;;13.15;11.00;;;;;;;6.44;67.81;99848.88;5009655;28;20049;-62
2021/03/31 04:39:31;;;;;;;12.38;11.07;;;;;;;6.33;68.02;99836.25;5010115;28;20046;-61
2021/03/31 04:41:57;;;;;;;13.30;11.10;;;;;;;6.50;67.89;99851.16;5009871;28;20478;-61
2021/03/31 04:44:22;;;;;;;12.20;10.88;;;;;;;6.49;67.88;99854.75;5010249;28;20038;-62
2021/03/31 04:46:48;;;;;;;12.23;10.55;;;;;;;5.72;67.56;99730.13;5009722;28;20053;-62
2021/03/31 04:49:13;;;;;;;11.88;9.98;;;;;;;6.40;67.69;99826.09;5009673;28;20179;-61
2021/03/31 04:51:39;;;;;;;12.50;9.85;;;;;;;6.57;67.68;99857.78;5010458;28;20033;-61
2021/03/31 04:54:04;;;;;;;10.88;9.30;;;;;;;6.31;67.39;99795.63;5013305;28;20216;-62
2021/03/31 04:56:30;;;;;;;11.02;9.35;;;;;;;6.61;67.35;99858.44;5013732;28;20482;-61
2021/03/31 04:58:55;;;;;;;10.95;9.15;;;;;;;6.62;67.56;99849.50;5013782;28;20135;-61
2021/03/31 05:01:21;;;;;;;12.73;9.32;;;;;;;6.60;67.82;99835.47;5013042;28;20038;-61
2021/03/31 05:03:46;;;;;;;10.15;8.85;;;;;;;6.65;67.63;99836.00;5008924;28;20511;-62
2021/03/31 05:06:12;;;;;;;12.43;10.20;;;;;;;6.75;67.87;99836.28;5011690;28;20417;-51
2021/03/31 05:08:37;;;;;;;12.43;9.35;;;;;;;6.80;67.30;99842.16;5012481;28;20525;-61
2021/03/31 05:11:03;;;;;;;11.55;9.35;;;;;;;6.42;66.69;99771.84;5013042;28;20619;-61
2021/03/31 05:13:28;;;;;;;11.15;8.82;;;;;;;6.80;67.14;99838.66;5013477;28;20038;-61
2021/03/31 05:15:54;;;;;;;11.25;9.20;;;;;;;6.90;66.83;99842.41;5013592;28;20030;-60
2021/03/31 05:18:19;;;;;;;10.48;9.35;;;;;;;6.88;66.83;99839.88;5013209;28;20077;-60
2021/03/31 05:20:45;;;;;;;9.98;8.93;;;;;;;6.92;66.77;99853.81;5013327;28;20072;-59
2021/03/31 05:23:10;;;;;;;9.52;8.35;;;;;;;6.85;67.05;99842.69;5013106;28;20054;-60
2021/03/31 05:25:37;;;;;;;10.52;8.90;;;;;;;6.84;66.93;99821.53;5013276;28;20060;-61
2021/03/31 05:28:03;;;;;;;10.23;8.85;;;;;;;6.87;66.93;99823.97;5013118;28;20050;-61
2021/03/31 05:30:29;;;;;;;12.98;10.05;;;;;;;7.01;67.18;99845.25;5012992;28;20136;-60
2021/03/31 05:32:55;;;;;;;11.38;10.10;;;;;;;7.03;66.78;99832.69;5013317;28;20164;-57
2021/03/31 05:35:20;;;;;;;12.23;10.18;;;;;;;7.11;66.48;99852.59;5013032;28;20049;-61
2021/03/31 05:37:46;;;;;;;12.02;10.70;;;;;;;7.16;66.49;99845.16;5012930;28;20037;-60
2021/03/31 05:40:12;;;;;;;12.65;10.88;;;;;;;7.15;66.51;99841.66;5013399;28;20385;-61
2021/03/31 05:42:38;;;;;;;13.38;10.93;;;;;;;7.22;66.84;99850.06;5013092;28;20034;-60
2021/03/31 05:45:06;;;;;;;14.45;12.13;;;;;;;7.27;66.64;99855.97;5012813;28;20048;-61
2021/03/31 05:47:38;;;;;;;14.93;11.23;;;;;;;6.96;66.59;99794.09;5012578;28;20030;-61
2021/03/31 05:50:08;;;;;;;12.93;11.43;;;;;;;7.31;67.02;99848.63;5012472;28;20042;-60
2021/03/31 05:52:35;;;;;;;11.63;10.38;;;;;;;7.29;65.98;99843.41;5012806;28;20387;-60
2021/03/31 05:55:02;;;;;;;13.20;11.48;;;;;;;6.93;66.63;99788.13;5012759;28;20151;-61
2021/03/31 05:57:35;;;;;;;13.57;10.77;;;;;;;7.31;66.13;99830.84;5012826;28;20037;-61
2021/03/31 06:00:03;;;;;;;11.48;9.80;;;;;;;6.88;66.26;99775.97;5012882;28;20033;-63
2021/03/31 06:02:29;;;;;;;11.18;8.75;;;;;;;7.33;66.02;99847.56;5022757;28;20029;-60
2021/03/31 06:04:55;;;;;;;13.80;8.98;;;;;;;7.33;65.72;99834.25;5032190;28;20041;-61
2021/03/31 06:07:20;;;;;;;11.43;9.63;;;;;;;7.38;65.78;99841.06;5032258;28;20041;-62
2021/03/31 06:10:05;;;;;;;10.90;9.48;;;;;;;7.61;65.87;99845.69;5032206;28;20029;-56
2021/03/31 06:12:31;;;;;;;15.55;9.68;;;;;;;7.56;65.24;99847.84;5032567;28;20367;-60
2021/03/31 06:15:10;;;;;;;12.52;9.82;;;;;;;7.61;65.87;99845.69;5032175;28;20037;-60
2021/03/31 06:17:54;;;;;;;13.43;9.52;;;;;;;7.50;66.06;99816.28;5031906;28;20567;-62
2021/03/31 06:20:45;;;;;;;15.57;9.75;;;;;;;7.74;65.60;99839.53;5031882;28;20111;-60
2021/03/31 06:26:32;;;;;;;17.67;10.13;;;;;;;7.82;65.47;99845.19;5031629;28;20045;-59
2021/03/31 06:29:06;;;;;;;14.55;11.32;;;;;;;7.85;65.59;99849.47;5031368;28;20029;-62
2021/03/31 06:31:34;;;;;;;13.07;9.38;;;;;;;7.52;65.19;99795.72;5031112;28;20045;-61
2021/03/31 06:34:05;;;;;;;12.60;9.57;;;;;;;7.90;65.16;99845.50;5031202;28;20037;-58
2021/03/31 06:36:59;;;;;;;12.43;9.20;;;;;;;7.97;64.99;99845.09;5031391;28;20033;-62
2021/03/31 06:39:32;;;;;;;11.30;8.82;;;;;;;8.04;64.99;99843.72;5029927;28;20068;-60
2021/03/31 06:42:01;;;;;;;14.10;9.18;;;;;;;8.05;64.75;99842.75;5031498;28;20033;-60
2021/03/31 06:45:05;;;;;;;14.68;10.13;;;;;;;8.17;64.80;99844.53;5030991;28;20034;-59
2021/03/31 06:47:35;;;;;;;12.75;9.07;;;;;;;8.10;64.20;99839.75;5032224;28;20144;-60
2021/03/31 06:50:04;;;;;;;11.48;9.20;;;;;;;8.19;64.17;99842.59;5031018;28;20132;-60
2021/03/31 06:52:30;;;;;;;11.15;9.05;;;;;;;8.21;64.10;99831.00;5031169;28;20485;-60
2021/03/31 06:54:59;;;;;;;11.05;8.52;;;;;;;8.19;64.06;99831.94;5031247;28;20081;-61
2021/03/31 06:57:33;;;;;;;10.82;9.15;;;;;;;8.35;64.26;99838.88;5031042;28;20041;-61
2021/03/31 07:00:07;;;;;;;11.95;9.00;;;;;;;8.34;64.40;99834.50;5031258;28;20030;-60
2021/03/31 07:02:34;;;;;;;13.07;8.85;;;;;;;8.27;63.83;99834.06;5031585;28;20033;-59
2021/03/31 07:05:01;;;;;;;11.20;8.63;;;;;;;8.18;63.72;99813.41;5030894;28;20106;-59
2021/03/31 07:07:32;;;;;;;10.68;8.55;;;;;;;8.35;63.86;99833.53;5030988;28;20033;-60
2021/03/31 07:10:09;;;;;;;8.88;7.97;;;;;;;8.05;63.86;99760.09;5030997;28;20091;-61
2021/03/31 07:12:49;;;;;;;8.90;7.32;;;;;;;8.52;63.95;99828.84;5030101;28;20037;-60
2021/03/31 07:15:16;;;;;;;10.25;8.07;;;;;;;8.51;63.21;99816.47;5028722;28;20516;-61
2021/03/31 07:17:55;;;;;;;9.15;7.68;;;;;;;8.55;63.48;99825.94;5030767;28;20064;-61
2021/03/31 07:20:26;;;;;;;8.63;7.18;;;;;;;8.58;63.03;99834.59;5029617;28;20497;-62
2021/03/31 07:22:53;;;;;;;8.93;6.90;;;;;;;8.57;62.91;99829.34;4997379;28;20073;-60
2021/03/31 07:25:20;;;;;;;7.68;6.88;;;;;;;8.34;63.31;99786.47;5010152;28;20041;-59
2021/03/31 07:27:45;;;;;;;9.93;7.30;;;;;;;8.21;63.17;99737.66;5010781;28;20046;-62
2021/03/31 07:30:16;;;;;;;7.75;6.85;;;;;;;8.41;62.86;99754.88;5010139;28;20057;-61
2021/03/31 07:32:58;;;;;;;9.13;6.40;;;;;;;9.16;62.47;99819.72;5010122;28;20438;-63
2021/03/31 07:35:28;;;;;;;18.30;8.05;;;;;;;9.27;61.02;99817.09;5010248;28;20153;-60
2021/03/31 07:37:56;;;;;;;10.07;7.28;;;;;;;9.35;61.12;99819.19;5010370;28;20038;-56
2021/03/31 07:40:21;;;;;;;11.15;8.25;;;;;;;9.46;60.38;99805.84;5010389;28;20033;-59
2021/03/31 07:42:54;;;;;;;9.18;6.78;;;;;;;9.60;60.31;99817.31;5010536;28;20048;-57
2021/03/31 07:45:24;;;;;;;7.80;6.32;;;;;;;9.62;60.10;99810.88;5010424;28;20025;-55
2021/03/31 07:47:50;;;;;;;7.95;6.25;;;;;;;9.65;60.06;99807.13;5010465;28;20053;-56
2021/03/31 07:50:16;;;;;;;8.30;6.40;;;;;;;9.39;59.60;99766.34;5009144;28;20042;-57
2021/03/31 07:52:59;;;;;;;8.25;6.78;;;;;;;9.79;59.88;99814.06;5007136;28;20084;-60
2021/03/31 07:55:34;;;;;;;7.30;6.10;;;;;;;9.70;60.08;99791.56;5008830;28;20036;-57
2021/03/31 07:58:12;;;;;;;7.03;5.53;;;;;;;9.88;60.00;99799.97;5011897;28;20041;-61
2021/03/31 08:01:02;;;;;;;6.93;5.78;;;;;;;9.94;59.91;99798.66;5009261;28;20082;-59
2021/03/31 08:03:30;;;;;;;8.57;5.82;;;;;;;9.88;59.58;99799.97;5009987;28;20046;-58
2021/03/31 08:06:11;;;;;;;6.00;5.38;;;;;;;9.85;60.46;99808.25;5009649;28;20085;-60
2021/03/31 08:08:37;;;;;;;6.32;5.38;;;;;;;9.72;60.39;99788.78;5010240;28;20073;-62
2021/03/31 08:11:04;;;;;;;5.45;4.85;;;;;;;9.80;60.44;99799.72;5017306;28;20030;-60
2021/03/31 08:13:35;;;;;;;5.25;4.75;;;;;;;9.89;60.84;99807.06;5009475;28;20453;-60
2021/03/31 08:16:21;;;;;;;6.88;5.20;;;;;;;9.94;60.21;99800.50;5009448;28;20038;-60
2021/03/31 08:18:47;;;;;;;18.48;11.25;;;;;;;10.03;60.01;99803.28;5004972;28;20049;-61
2021/03/31 08:21:24;;;;;;;70.25;32.17;;;;;;;10.08;60.38;99804.75;5009444;28;20418;-60
2021/03/31 08:23:52;;;;;;;134.82;56.40;;;;;;;10.08;59.97;99805.59;5007746;28;20573;-58
2021/03/31 08:26:59;;;;;;;19.83;11.00;;;;;;;10.23;60.07;99808.03;5008697;28;20046;-57
2021/03/31 08:29:25;;;;;;;12.73;7.30;;;;;;;10.24;59.33;99799.03;5012939;28;20046;-61
2021/03/31 08:32:02;;;;;;;31.52;15.65;;;;;;;10.30;59.61;99811.91;5011144;28;20026;-59
2021/03/31 08:34:32;;;;;;;13.32;8.43;;;;;;;10.31;59.49;99811.81;5009380;28;20100;-61
2021/03/31 08:37:04;;;;;;;18.60;10.57;;;;;;;10.00;59.20;99738.47;5011833;28;20382;-60
2021/03/31 08:39:30;;;;;;;20.15;11.77;;;;;;;10.18;59.16;99777.16;5012327;28;20099;-60
2021/03/31 08:41:57;;;;;;;10.60;7.40;;;;;;;9.96;58.99;99743.22;5011344;28;20145;-59
2021/03/31 08:44:32;;;;;;;7.68;6.40;;;;;;;10.31;59.00;99797.56;5007589;28;20122;-61
2021/03/31 08:47:14;;;;;;;8.13;6.32;;;;;;;10.41;58.90;99787.88;5009603;28;20331;-60
2021/03/31 08:49:40;;;;;;;8.65;6.88;;;;;;;10.07;58.61;99734.34;5011332;28;20072;-61
2021/03/31 08:52:08;;;;;;;8.10;6.72;;;;;;;10.28;58.61;99763.88;5007246;28;20038;-61
2021/03/31 08:54:41;;;;;;;9.02;6.40;;;;;;;10.47;58.49;99782.00;5010216;28;20122;-59
2021/03/31 08:57:18;;;;;;;9.95;6.60;;;;;;;10.50;58.33;99782.72;5012159;28;20587;-57
2021/03/31 08:59:50;;;;;;;9.90;5.88;;;;;;;10.34;58.32;99759.84;5009656;28;20520;-51
2021/03/31 09:02:21;;;;;;;6.40;5.80;;;;;;;10.45;58.67;99780.41;5013054;28;20048;-60
2021/03/31 09:04:50;;;;;;;8.57;6.35;;;;;;;9.94;58.20;99690.84;5013113;28;20038;-60
2021/03/31 09:07:16;;;;;;;7.28;6.07;;;;;;;10.47;58.66;99765.94;5013122;28;20030;-55
2021/03/31 09:09:42;;;;;;;11.43;6.53;;;;;;;10.44;58.81;99773.38;5010789;28;20040;-59
2021/03/31 09:12:10;;;;;;;7.35;6.05;;;;;;;10.35;58.72;99764.22;5019440;28;20088;-60
2021/03/31 09:14:39;;;;;;;6.95;6.13;;;;;;;10.42;58.72;99768.16;5008557;28;20044;-56
2021/03/31 09:17:10;;;;;;;7.68;6.57;;;;;;;10.42;58.82;99778.84;5013480;28;20040;-60
2021/03/31 09:19:38;;;;;;;9.30;6.18;;;;;;;10.39;58.20;99770.19;5012464;28;20585;-59
2021/03/31 09:22:06;;;;;;;9.25;6.75;;;;;;;10.33;58.69;99758.13;5010011;28;20034;-58
2021/03/31 09:24:32;;;;;;;8.10;6.68;;;;;;;10.40;58.43;99764.75;5008230;28;20054;-59
2021/03/31 09:27:02;;;;;;;8.13;6.03;;;;;;;10.45;58.67;99770.56;5010197;28;20711;-59
2021/03/31 09:29:28;;;;;;;7.53;6.55;;;;;;;10.10;58.69;99712.69;5009505;28;20512;-58
2021/03/31 09:31:56;;;;;;;8.98;6.47;;;;;;;10.50;58.98;99758.63;5010014;28;20030;-56
2021/03/31 09:34:32;;;;;;;9.68;7.07;;;;;;;10.68;58.50;99762.50;5026312;28;20034;-61
2021/03/31 09:37:03;;;;;;;7.53;6.68;;;;;;;10.79;57.94;99761.59;5005735;28;20133;-59
2021/03/31 09:39:53;;;;;;;8.10;7.03;;;;;;;10.78;58.28;99762.59;5010969;28;20395;-66
2021/03/31 09:42:33;;;;;;;7.97;7.18;;;;;;;10.78;58.57;99762.59;5011424;28;20084;-65
2021/03/31 09:45:00;;;;;;;8.05;6.90;;;;;;;10.68;58.31;99754.47;4996576;28;20401;-66
2021/03/31 09:47:31;;;;;;;9.60;7.55;;;;;;;10.81;58.36;99764.13;5009464;28;20041;-61
2021/03/31 09:49:57;;;;;;;9.02;7.43;;;;;;;10.88;58.08;99770.72;5009700;28;20037;-60
2021/03/31 09:52:28;;;;;;;10.02;7.43;;;;;;;10.92;58.32;99769.47;5007308;28;20060;-62
2021/03/31 09:54:55;;;;;;;8.63;7.70;;;;;;;10.88;57.88;99768.03;5010802;28;20056;-57
2021/03/31 09:57:27;;;;;;;8.80;7.90;;;;;;;10.78;58.04;99749.19;5008524;28;20061;-57
2021/03/31 09:59:54;;;;;;;9.63;8.18;;;;;;;10.77;58.05;99748.34;5008017;28;20065;-57
2021/03/31 10:02:21;;;;;;;8.88;7.97;;;;;;;10.51;57.84;99707.66;5010889;28;20034;-58
2021/03/31 10:04:47;;;;;;;9.13;8.07;;;;;;;10.83;57.99;99763.03;4991715;28;20038;-65
2021/03/31 10:07:20;;;;;;;10.02;8.00;;;;;;;10.90;58.12;99760.72;5006632;28;20490;-58
2021/03/31 10:09:48;;;;;;;11.68;9.68;;;;;;;10.94;57.78;99764.84;5010836;28;20046;-56
2021/03/31 10:12:22;;;;;;;11.73;9.73;;;;;;;10.93;58.26;99763.13;5008332;28;20046;-53
2021/03/31 10:14:52;;;;;;;12.25;9.10;;;;;;;10.88;57.92;99757.31;5005339;28;20113;-58
2021/03/31 10:17:21;;;;;;;11.52;9.88;;;;;;;10.91;57.60;99760.56;5008410;28;20129;-56
2021/03/31 10:19:47;;;;;;;12.68;10.27;;;;;;;10.93;57.70;99764.94;5009838;28;20044;-59
2021/03/31 10:22:14;;;;;;;11.48;10.10;;;;;;;10.90;57.85;99766.06;5009366;28;20064;-60
2021/03/31 10:24:42;;;;;;;12.52;10.38;;;;;;;10.89;58.13;99764.38;4995174;28;712109;-60
2021/03/31 10:27:10;;;;;;;14.23;11.52;;;;;;;10.87;57.83;99766.34;5011255;28;20042;-57
2021/03/31 10:29:43;;;;;;;13.95;10.93;;;;;;;10.89;58.00;99767.06;5008721;28;20398;-57
2021/03/31 10:32:10;;;;;;;13.07;10.27;;;;;;;10.91;57.77;99755.22;5009086;28;20033;-65
2021/03/31 10:34:44;;;;;;;16.58;11.00;;;;;;;10.88;58.42;99768.03;5006664;28;20081;-60
2021/03/31 10:54:05;;;;;;;;;;;;;;;10.70;57.79;99746.28;5010909;28;20476;-58
2021/03/31 10:56:32;;;;;;;14.15;11.00;;;;;;;10.51;58.32;99749.63;5010630;28;19917;-71
2021/03/31 10:58:58;;;;;;;14.68;11.30;;;;;;;10.43;58.31;99743.09;5010073;28;20044;-65
2021/03/31 11:01:23;;;;;;;15.80;12.65;;;;;;;10.12;59.18;99689.34;5009996;28;20029;-57
2021/03/31 11:03:49;;;;;;;12.68;10.82;;;;;;;10.45;59.42;99734.91;5008829;28;20054;-56
2021/03/31 11:06:14;;;;;;;16.95;12.25;;;;;;;10.49;58.68;99733.72;5010358;28;20640;-63
2021/03/31 11:08:40;;;;;;;15.60;11.07;;;;;;;10.59;58.55;99734.66;5011916;28;20137;-63
2021/03/31 11:11:09;;;;;;;16.65;11.45;;;;;;;10.63;58.73;99729.91;5006325;28;20052;-58
2021/03/31 11:13:34;;;;;;;13.55;11.13;;;;;;;10.24;58.59;99671.44;5009041;28;20121;-64
2021/03/31 11:16:02;;;;;;;14.88;11.43;;;;;;;10.62;58.53;99728.19;5007612;28;20029;-61
2021/03/31 11:18:54;;;;;;;12.75;10.25;;;;;;;10.34;58.58;99682.22;4986952;28;20386;-58
2021/03/31 11:27:05;;;;;;;14.60;10.00;;;;;;;10.61;58.64;99721.16;5009356;28;20056;-66
2021/03/31 11:29:30;;;;;;;14.05;10.70;;;;;;;10.54;58.56;99701.19;5014396;28;20042;-59
2021/03/31 11:31:56;;;;;;;23.40;12.30;;;;;;;10.64;58.76;99720.88;5005644;28;20034;-63
2021/03/31 11:34:21;;;;;;;13.00;10.27;;;;;;;10.68;58.78;99708.06;5000651;28;20044;-65
2021/03/31 11:36:49;;;;;;;15.23;11.15;;;;;;;10.27;58.57;99640.91;5010502;28;20032;-62
2021/03/31 11:39:16;;;;;;;16.92;10.75;;;;;;;10.59;58.62;99683.78;5008479;28;20124;-62
2021/03/31 11:41:42;;;;;;;14.73;11.13;;;;;;;10.67;58.87;99699.22;5007053;28;20044;-60
2021/03/31 11:44:08;;;;;;;14.23;11.20;;;;;;;10.68;58.84;99702.72;5007885;28;20041;-60
2021/03/31 11:46:33;;;;;;;16.02;10.75;;;;;;;10.62;59.04;99690.72;5004152;28;20070;-62
2021/03/31 11:49:00;;;;;;;15.68;11.75;;;;;;;10.62;58.42;99690.72;5008400;28;20026;-56
2021/03/31 11:51:25;;;;;;;15.98;11.63;;;;;;;10.68;58.79;99697.38;4990922;28;20472;-63
2021/03/31 11:53:51;;;;;;;15.77;10.98;;;;;;;10.48;58.83;99668.59;5009491;28;20125;-61
2021/03/31 11:56:16;;;;;;;12.82;10.23;;;;;;;10.53;59.19;99688.78;5008547;28;20057;-60
2021/03/31 11:58:42;;;;;;;13.60;11.15;;;;;;;10.27;59.22;99659.63;5009539;28;20034;-59
2021/03/31 12:01:08;;;;;;;12.93;10.63;;;;;;;10.24;59.45;99665.25;5009514;28;20030;-54
2021/03/31 12:03:33;;;;;;;15.60;11.38;;;;;;;10.13;59.70;99668.78;5008016;28;20113;-58
2021/03/31 12:05:59;;;;;;;18.35;13.02;;;;;;;9.90;60.48;99677.72;5009253;28;20485;-64